sensor_id;sensor_type;location;lat;lon;timestamp;pressure;altitude;pressure_sealevel;temperature;humidity
74790;BME280;63318;52.406;13.416;2023-04-06T00:00:07;101760.15;;;2.62;68.46
74790;BME280;63318;52.406;13.416;2023-04-06T00:02:37;101757.42;;;2.59;68.39
74790;BME280;63318;52.406;13.416;2023-04-06T00:05:07;101757.99;;;2.56;68.60
74790;BME280;63318;52.406;13.416;2023-04-06T00:07:36;101755.86;;;2.53;68.42
74790;BME280;63318;52.406;13.416;2023-04-06T00:10:07;101754.11;;;2.50;69.00
74790;BME280;63318;52.406;13.416;2023-04-06T00:12:36;101751.02;;;2.47;68.76
74790;BME280;63318;52.406;13.416;2023-04-06T00:15:10;101749.77;;;2.43;69.11
74790;BME280;63318;52.406;13.416;2023-04-06T00:17:38;101747.02;;;2.38;68.98
74790;BME280;63318;52.406;13.416;2023-04-06T00:20:09;101743.81;;;2.33;68.78
74790;BME280;63318;52.406;13.416;2023-04-06T00:22:38;101742.17;;;2.29;68.93
74790;BME280;63318;52.406;13.416;2023-04-06T00:25:08;101742.09;;;2.24;69.26
74790;BME280;63318;52.406;13.416;2023-04-06T00:27:37;101742.08;;;2.21;69.17
74790;BME280;63318;52.406;13.416;2023-04-06T00:30:08;101744.15;;;2.18;69.18
74790;BME280;63318;52.406;13.416;2023-04-06T00:32:36;101741.39;;;2.16;69.50
74790;BME280;63318;52.406;13.416;2023-04-06T00:35:06;101744.54;;;2.14;69.10
74790;BME280;63318;52.406;13.416;2023-04-06T00:37:34;101741.69;;;2.11;69.25
74790;BME280;63318;52.406;13.416;2023-04-06T00:40:04;101742.23;;;2.10;69.42
74790;BME280;63318;52.406;13.416;2023-04-06T00:42:33;101741.64;;;2.07;69.13
74790;BME280;63318;52.406;13.416;2023-04-06T00:45:02;101739.13;;;2.04;69.58
74790;BME280;63318;52.406;13.416;2023-04-06T00:47:32;101735.83;;;2.00;69.64
74790;BME280;63318;52.406;13.416;2023-04-06T00:50:01;101735.17;;;1.97;69.38
74790;BME280;63318;52.406;13.416;2023-04-06T00:52:30;101736.86;;;1.93;69.52
74790;BME280;63318;52.406;13.416;2023-04-06T00:54:59;101738.52;;;1.91;69.51
74790;BME280;63318;52.406;13.416;2023-04-06T00:57:28;101737.48;;;1.89;69.63
74790;BME280;63318;52.406;13.416;2023-04-06T00:59:57;101740.45;;;1.87;69.60
74790;BME280;63318;52.406;13.416;2023-04-06T01:02:26;101738.23;;;1.85;69.52
74790;BME280;63318;52.406;13.416;2023-04-06T01:04:55;101737.92;;;1.84;69.73
74790;BME280;63318;52.406;13.416;2023-04-06T01:07:24;101735.96;;;1.82;70.03
74790;BME280;63318;52.406;13.416;2023-04-06T01:09:54;101734.11;;;1.79;69.72
74790;BME280;63318;52.406;13.416;2023-04-06T01:12:22;101732.41;;;1.77;69.90
74790;BME280;63318;52.406;13.416;2023-04-06T01:14:51;101734.91;;;1.75;69.73
74790;BME280;63318;52.406;13.416;2023-04-06T01:17:19;101731.95;;;1.72;70.08
74790;BME280;63318;52.406;13.416;2023-04-06T01:19:48;101730.36;;;1.69;69.97
74790;BME280;63318;52.406;13.416;2023-04-06T01:22:17;101730.67;;;1.66;70.51
74790;BME280;63318;52.406;13.416;2023-04-06T01:24:47;101734.65;;;1.64;70.18
74790;BME280;63318;52.406;13.416;2023-04-06T01:27:16;101736.55;;;1.62;70.69
74790;BME280;63318;52.406;13.416;2023-04-06T01:29:45;101732.11;;;1.59;70.60
74790;BME280;63318;52.406;13.416;2023-04-06T01:32:14;101737.34;;;1.57;70.45
74790;BME280;63318;52.406;13.416;2023-04-06T01:34:42;101734.32;;;1.55;70.63
74790;BME280;63318;52.406;13.416;2023-04-06T01:37:11;101734.21;;;1.53;70.76
74790;BME280;63318;52.406;13.416;2023-04-06T01:39:40;101732.54;;;1.52;71.07
74790;BME280;63318;52.406;13.416;2023-04-06T01:42:08;101730.59;;;1.50;71.12
74790;BME280;63318;52.406;13.416;2023-04-06T01:44:37;101732.98;;;1.48;70.74
74790;BME280;63318;52.406;13.416;2023-04-06T01:47:05;101726.84;;;1.46;70.71
74790;BME280;63318;52.406;13.416;2023-04-06T01:49:34;101726.42;;;1.44;70.99
74790;BME280;63318;52.406;13.416;2023-04-06T01:52:02;101727.90;;;1.41;71.22
74790;BME280;63318;52.406;13.416;2023-04-06T01:54:32;101728.48;;;1.37;70.94
74790;BME280;63318;52.406;13.416;2023-04-06T01:57:00;101726.08;;;1.36;71.14
74790;BME280;63318;52.406;13.416;2023-04-06T01:59:29;101722.90;;;1.35;70.78
74790;BME280;63318;52.406;13.416;2023-04-06T02:01:57;101724.02;;;1.33;70.95
74790;BME280;63318;52.406;13.416;2023-04-06T02:04:26;101726.19;;;1.32;71.03
74790;BME280;63318;52.406;13.416;2023-04-06T02:06:54;101722.17;;;1.31;70.93
74790;BME280;63318;52.406;13.416;2023-04-06T02:09:23;101726.06;;;1.29;71.30
74790;BME280;63318;52.406;13.416;2023-04-06T02:11:52;101724.73;;;1.27;71.54
74790;BME280;63318;52.406;13.416;2023-04-06T02:14:20;101721.65;;;1.23;71.47
74790;BME280;63318;52.406;13.416;2023-04-06T02:16:49;101721.85;;;1.20;71.25
74790;BME280;63318;52.406;13.416;2023-04-06T02:19:18;101721.68;;;1.17;71.47
74790;BME280;63318;52.406;13.416;2023-04-06T02:21:46;101727.92;;;1.14;71.47
74790;BME280;63318;52.406;13.416;2023-04-06T02:24:15;101725.14;;;1.11;71.58
74790;BME280;63318;52.406;13.416;2023-04-06T02:26:43;101724.59;;;1.09;71.15
74790;BME280;63318;52.406;13.416;2023-04-06T02:29:13;101723.85;;;1.06;71.72
74790;BME280;63318;52.406;13.416;2023-04-06T02:31:41;101724.93;;;1.03;71.45
74790;BME280;63318;52.406;13.416;2023-04-06T02:34:10;101728.13;;;1.01;71.15
74790;BME280;63318;52.406;13.416;2023-04-06T02:36:38;101729.70;;;0.99;71.36
74790;BME280;63318;52.406;13.416;2023-04-06T02:39:07;101727.77;;;0.97;71.43
74790;BME280;63318;52.406;13.416;2023-04-06T02:41:35;101724.83;;;0.94;71.31
74790;BME280;63318;52.406;13.416;2023-04-06T02:44:04;101726.91;;;0.92;71.53
74790;BME280;63318;52.406;13.416;2023-04-06T02:46:32;101729.81;;;0.89;71.49
74790;BME280;63318;52.406;13.416;2023-04-06T02:49:01;101730.89;;;0.86;71.69
74790;BME280;63318;52.406;13.416;2023-04-06T02:51:30;101730.31;;;0.83;72.00
74790;BME280;63318;52.406;13.416;2023-04-06T02:53:59;101729.76;;;0.81;71.66
74790;BME280;63318;52.406;13.416;2023-04-06T02:56:28;101731.57;;;0.78;71.99
74790;BME280;63318;52.406;13.416;2023-04-06T02:58:57;101727.20;;;0.73;71.89
74790;BME280;63318;52.406;13.416;2023-04-06T03:01:25;101728.50;;;0.68;72.01
74790;BME280;63318;52.406;13.416;2023-04-06T03:03:54;101731.45;;;0.62;72.10
74790;BME280;63318;52.406;13.416;2023-04-06T03:06:23;101734.25;;;0.57;71.64
74790;BME280;63318;52.406;13.416;2023-04-06T03:08:52;101736.81;;;0.51;71.62
74790;BME280;63318;52.406;13.416;2023-04-06T03:11:20;101737.63;;;0.46;71.91
74790;BME280;63318;52.406;13.416;2023-04-06T03:13:49;101734.00;;;0.40;72.00
74790;BME280;63318;52.406;13.416;2023-04-06T03:16:18;101733.56;;;0.34;72.27
74790;BME280;63318;52.406;13.416;2023-04-06T03:18:46;101735.43;;;0.28;72.43
74790;BME280;63318;52.406;13.416;2023-04-06T03:21:15;101733.42;;;0.24;72.27
74790;BME280;63318;52.406;13.416;2023-04-06T03:23:44;101735.10;;;0.19;72.43
74790;BME280;63318;52.406;13.416;2023-04-06T03:26:13;101733.38;;;0.15;72.26
74790;BME280;63318;52.406;13.416;2023-04-06T03:28:41;101734.28;;;0.11;72.25
74790;BME280;63318;52.406;13.416;2023-04-06T03:31:10;101734.85;;;0.06;72.10
74790;BME280;63318;52.406;13.416;2023-04-06T03:33:39;101741.64;;;0.01;72.49
74790;BME280;63318;52.406;13.416;2023-04-06T03:36:08;101742.91;;;-0.04;72.16
74790;BME280;63318;52.406;13.416;2023-04-06T03:38:38;101745.25;;;-0.08;72.38
74790;BME280;63318;52.406;13.416;2023-04-06T03:41:06;101742.14;;;-0.13;72.62
74790;BME280;63318;52.406;13.416;2023-04-06T03:43:35;101746.30;;;-0.17;73.02
74790;BME280;63318;52.406;13.416;2023-04-06T03:46:03;101753.52;;;-0.21;72.84
74790;BME280;63318;52.406;13.416;2023-04-06T03:48:32;101750.00;;;-0.25;72.80
74790;BME280;63318;52.406;13.416;2023-04-06T03:51:01;101752.42;;;-0.30;72.73
74790;BME280;63318;52.406;13.416;2023-04-06T03:53:29;101754.18;;;-0.34;72.83
74790;BME280;63318;52.406;13.416;2023-04-06T03:55:58;101757.02;;;-0.38;73.17
74790;BME280;63318;52.406;13.416;2023-04-06T03:58:28;101761.48;;;-0.42;72.91
74790;BME280;63318;52.406;13.416;2023-04-06T04:00:56;101761.19;;;-0.46;72.83
74790;BME280;63318;52.406;13.416;2023-04-06T04:03:26;101762.48;;;-0.49;73.02
74790;BME280;63318;52.406;13.416;2023-04-06T04:05:54;101765.67;;;-0.52;72.95
74790;BME280;63318;52.406;13.416;2023-04-06T04:08:24;101768.47;;;-0.55;73.44
74790;BME280;63318;52.406;13.416;2023-04-06T04:10:53;101769.46;;;-0.59;73.13
74790;BME280;63318;52.406;13.416;2023-04-06T04:13:22;101770.61;;;-0.63;73.49
74790;BME280;63318;52.406;13.416;2023-04-06T04:15:50;101774.54;;;-0.65;73.44
74790;BME280;63318;52.406;13.416;2023-04-06T04:18:19;101776.02;;;-0.69;73.29
74790;BME280;63318;52.406;13.416;2023-04-06T04:20:48;101776.13;;;-0.71;73.42
74790;BME280;63318;52.406;13.416;2023-04-06T04:23:17;101775.14;;;-0.72;73.38
74790;BME280;63318;52.406;13.416;2023-04-06T04:25:46;101774.10;;;-0.74;74.04
74790;BME280;63318;52.406;13.416;2023-04-06T04:28:14;101774.98;;;-0.76;73.84
74790;BME280;63318;52.406;13.416;2023-04-06T04:30:44;101775.95;;;-0.77;73.57
74790;BME280;63318;52.406;13.416;2023-04-06T04:33:14;101773.40;;;-0.79;73.47
74790;BME280;63318;52.406;13.416;2023-04-06T04:35:43;101775.04;;;-0.81;73.90
74790;BME280;63318;52.406;13.416;2023-04-06T04:38:11;101776.13;;;-0.82;74.11
74790;BME280;63318;52.406;13.416;2023-04-06T04:40:41;101776.34;;;-0.84;74.21
74790;BME280;63318;52.406;13.416;2023-04-06T04:43:09;101779.35;;;-0.86;74.02
74790;BME280;63318;52.406;13.416;2023-04-06T04:45:38;101779.48;;;-0.88;73.90
74790;BME280;63318;52.406;13.416;2023-04-06T04:48:07;101774.69;;;-0.89;74.01
74790;BME280;63318;52.406;13.416;2023-04-06T04:50:36;101774.07;;;-0.90;74.16
74790;BME280;63318;52.406;13.416;2023-04-06T04:53:07;101777.05;;;-0.90;74.42
74790;BME280;63318;52.406;13.416;2023-04-06T04:55:35;101779.02;;;-0.90;74.35
74790;BME280;63318;52.406;13.416;2023-04-06T04:58:04;101777.80;;;-0.90;74.32
74790;BME280;63318;52.406;13.416;2023-04-06T05:00:32;101780.77;;;-0.91;74.08
74790;BME280;63318;52.406;13.416;2023-04-06T05:03:01;101780.52;;;-0.90;74.23
74790;BME280;63318;52.406;13.416;2023-04-06T05:05:31;101782.73;;;-0.91;74.42
74790;BME280;63318;52.406;13.416;2023-04-06T05:07:59;101781.23;;;-0.90;74.48
74790;BME280;63318;52.406;13.416;2023-04-06T05:10:28;101781.39;;;-0.90;74.85
74790;BME280;63318;52.406;13.416;2023-04-06T05:12:58;101782.36;;;-0.89;74.96
74790;BME280;63318;52.406;13.416;2023-04-06T05:15:27;101782.98;;;-0.88;74.93
74790;BME280;63318;52.406;13.416;2023-04-06T05:17:56;101783.91;;;-0.85;74.92
74790;BME280;63318;52.406;13.416;2023-04-06T05:20:25;101785.65;;;-0.83;75.11
74790;BME280;63318;52.406;13.416;2023-04-06T05:22:53;101784.92;;;-0.80;75.13
74790;BME280;63318;52.406;13.416;2023-04-06T05:25:22;101787.84;;;-0.77;75.16
74790;BME280;63318;52.406;13.416;2023-04-06T05:27:54;101789.27;;;-0.73;75.19
74790;BME280;63318;52.406;13.416;2023-04-06T05:30:24;101791.08;;;-0.68;75.44
74790;BME280;63318;52.406;13.416;2023-04-06T05:32:52;101793.80;;;-0.63;75.53
74790;BME280;63318;52.406;13.416;2023-04-06T05:35:21;101794.16;;;-0.59;75.75
74790;BME280;63318;52.406;13.416;2023-04-06T05:37:50;101795.80;;;-0.53;75.73
74790;BME280;63318;52.406;13.416;2023-04-06T05:40:19;101799.81;;;-0.46;75.77
74790;BME280;63318;52.406;13.416;2023-04-06T05:42:48;101800.05;;;-0.39;75.63
74790;BME280;63318;52.406;13.416;2023-04-06T05:45:17;101801.65;;;-0.31;75.63
74790;BME280;63318;52.406;13.416;2023-04-06T05:47:46;101802.77;;;-0.22;75.99
74790;BME280;63318;52.406;13.416;2023-04-06T05:50:16;101804.22;;;-0.13;75.90
74790;BME280;63318;52.406;13.416;2023-04-06T05:52:45;101805.33;;;-0.01;75.80
74790;BME280;63318;52.406;13.416;2023-04-06T05:55:14;101803.66;;;0.14;75.94
74790;BME280;63318;52.406;13.416;2023-04-06T05:57:42;101806.30;;;0.28;76.17
74790;BME280;63318;52.406;13.416;2023-04-06T06:00:14;101801.96;;;0.46;75.77
74790;BME280;63318;52.406;13.416;2023-04-06T06:02:43;101802.90;;;0.65;76.12
74790;BME280;63318;52.406;13.416;2023-04-06T06:05:11;101801.91;;;0.85;76.07
74790;BME280;63318;52.406;13.416;2023-04-06T06:07:40;101800.89;;;1.05;76.01
74790;BME280;63318;52.406;13.416;2023-04-06T06:10:10;101803.59;;;1.28;75.37
74790;BME280;63318;52.406;13.416;2023-04-06T06:12:40;101806.14;;;1.50;75.20
74790;BME280;63318;52.406;13.416;2023-04-06T06:15:10;101806.24;;;1.72;75.42
74790;BME280;63318;52.406;13.416;2023-04-06T06:17:40;101805.14;;;1.94;74.34
74790;BME280;63318;52.406;13.416;2023-04-06T06:20:11;101807.50;;;2.15;74.35
74790;BME280;63318;52.406;13.416;2023-04-06T06:22:40;101804.88;;;2.37;73.56
74790;BME280;63318;52.406;13.416;2023-04-06T06:25:09;101805.48;;;2.59;73.23
74790;BME280;63318;52.406;13.416;2023-04-06T06:27:38;101806.05;;;2.82;73.12
74790;BME280;63318;52.406;13.416;2023-04-06T06:30:09;101803.13;;;3.03;72.77
74790;BME280;63318;52.406;13.416;2023-04-06T06:32:38;101796.92;;;3.25;72.87
74790;BME280;63318;52.406;13.416;2023-04-06T06:35:09;101798.17;;;3.48;72.42
74790;BME280;63318;52.406;13.416;2023-04-06T06:37:37;101796.87;;;3.71;72.13
74790;BME280;63318;52.406;13.416;2023-04-06T06:40:09;101800.65;;;3.91;71.61
74790;BME280;63318;52.406;13.416;2023-04-06T06:42:38;101799.84;;;4.13;71.17
74790;BME280;63318;52.406;13.416;2023-04-06T06:45:10;101801.70;;;4.36;71.29
74790;BME280;63318;52.406;13.416;2023-04-06T06:47:39;101796.53;;;4.60;70.57
74790;BME280;63318;52.406;13.416;2023-04-06T06:50:10;101799.83;;;4.83;69.98
74790;BME280;63318;52.406;13.416;2023-04-06T06:52:38;101799.81;;;5.01;69.03
74790;BME280;63318;52.406;13.416;2023-04-06T06:55:12;101801.44;;;5.20;68.76
74790;BME280;63318;52.406;13.416;2023-04-06T06:57:40;101806.45;;;5.38;68.81
74790;BME280;63318;52.406;13.416;2023-04-06T07:00:16;101808.20;;;5.58;68.13
74790;BME280;63318;52.406;13.416;2023-04-06T07:02:44;101810.14;;;5.79;67.66
74790;BME280;63318;52.406;13.416;2023-04-06T07:05:13;101808.11;;;5.96;67.13
74790;BME280;63318;52.406;13.416;2023-04-06T07:07:41;101805.55;;;6.10;66.27
74790;BME280;63318;52.406;13.416;2023-04-06T07:10:10;101808.65;;;6.27;66.47
74790;BME280;63318;52.406;13.416;2023-04-06T07:12:39;101809.15;;;6.47;66.27
74790;BME280;63318;52.406;13.416;2023-04-06T07:15:12;101807.83;;;6.68;65.94
74790;BME280;63318;52.406;13.416;2023-04-06T07:17:39;101805.38;;;6.89;65.54
74790;BME280;63318;52.406;13.416;2023-04-06T07:20:08;101803.64;;;7.10;65.34
74790;BME280;63318;52.406;13.416;2023-04-06T07:22:39;101801.48;;;7.30;64.81
74790;BME280;63318;52.406;13.416;2023-04-06T07:25:10;101799.75;;;7.48;64.27
74790;BME280;63318;52.406;13.416;2023-04-06T07:27:39;101799.67;;;7.63;63.46
74790;BME280;63318;52.406;13.416;2023-04-06T07:30:10;101797.44;;;7.77;63.48
74790;BME280;63318;52.406;13.416;2023-04-06T07:32:42;101798.57;;;7.94;62.74
74790;BME280;63318;52.406;13.416;2023-04-06T07:35:11;101794.70;;;8.13;62.62
74790;BME280;63318;52.406;13.416;2023-04-06T07:37:40;101797.91;;;8.34;62.12
74790;BME280;63318;52.406;13.416;2023-04-06T07:40:11;101792.68;;;8.51;61.29
74790;BME280;63318;52.406;13.416;2023-04-06T07:42:40;101796.45;;;8.67;60.57
74790;BME280;63318;52.406;13.416;2023-04-06T07:45:09;101794.92;;;8.86;60.44
74790;BME280;63318;52.406;13.416;2023-04-06T07:47:39;101793.31;;;9.01;60.00
74790;BME280;63318;52.406;13.416;2023-04-06T07:50:10;101791.87;;;9.21;60.17
74790;BME280;63318;52.406;13.416;2023-04-06T07:52:39;101792.60;;;9.42;59.30
74790;BME280;63318;52.406;13.416;2023-04-06T07:55:10;101794.25;;;9.63;58.16
74790;BME280;63318;52.406;13.416;2023-04-06T07:57:39;101791.59;;;9.82;58.24
74790;BME280;63318;52.406;13.416;2023-04-06T08:00:11;101794.40;;;10.03;57.97
74790;BME280;63318;52.406;13.416;2023-04-06T08:02:41;101791.92;;;10.19;56.35
74790;BME280;63318;52.406;13.416;2023-04-06T08:05:11;101792.09;;;10.34;57.10
74790;BME280;63318;52.406;13.416;2023-04-06T08:07:39;101788.23;;;10.56;56.05
74790;BME280;63318;52.406;13.416;2023-04-06T08:10:09;101791.82;;;10.75;55.40
74790;BME280;63318;52.406;13.416;2023-04-06T08:12:39;101784.52;;;10.89;54.56
74790;BME280;63318;52.406;13.416;2023-04-06T08:15:09;101784.59;;;11.08;54.76
74790;BME280;63318;52.406;13.416;2023-04-06T08:17:38;101785.05;;;11.30;54.15
74790;BME280;63318;52.406;13.416;2023-04-06T08:20:08;101785.95;;;11.47;54.27
74790;BME280;63318;52.406;13.416;2023-04-06T08:22:36;101784.98;;;11.67;52.56
74790;BME280;63318;52.406;13.416;2023-04-06T08:25:06;101787.20;;;11.82;52.25
74790;BME280;63318;52.406;13.416;2023-04-06T08:27:35;101788.79;;;11.99;51.91
74790;BME280;63318;52.406;13.416;2023-04-06T08:30:04;101784.89;;;12.12;51.39
74790;BME280;63318;52.406;13.416;2023-04-06T08:32:33;101781.41;;;12.22;51.05
74790;BME280;63318;52.406;13.416;2023-04-06T08:35:01;101781.25;;;12.32;51.52
74790;BME280;63318;52.406;13.416;2023-04-06T08:37:30;101783.65;;;12.47;50.24
74790;BME280;63318;52.406;13.416;2023-04-06T08:40:00;101778.48;;;12.64;50.14
74790;BME280;63318;52.406;13.416;2023-04-06T08:42:31;101777.92;;;12.79;48.96
74790;BME280;63318;52.406;13.416;2023-04-06T08:45:01;101776.61;;;12.94;48.72
74790;BME280;63318;52.406;13.416;2023-04-06T08:47:30;101779.19;;;13.04;48.22
74790;BME280;63318;52.406;13.416;2023-04-06T08:49:59;101777.04;;;13.11;48.48
74790;BME280;63318;52.406;13.416;2023-04-06T08:52:33;101776.42;;;13.19;48.57
74790;BME280;63318;52.406;13.416;2023-04-06T08:55:02;101776.66;;;13.27;47.60
74790;BME280;63318;52.406;13.416;2023-04-06T08:57:31;101778.64;;;13.30;45.95
74790;BME280;63318;52.406;13.416;2023-04-06T09:00:01;101773.55;;;13.31;46.04
74790;BME280;63318;52.406;13.416;2023-04-06T09:02:30;101775.14;;;13.41;46.64
74790;BME280;63318;52.406;13.416;2023-04-06T09:05:00;101775.59;;;13.55;47.03
74790;BME280;63318;52.406;13.416;2023-04-06T09:07:28;101770.39;;;13.62;45.81
74790;BME280;63318;52.406;13.416;2023-04-06T09:09:57;101777.23;;;13.67;45.43
74790;BME280;63318;52.406;13.416;2023-04-06T09:12:27;101777.87;;;13.70;45.14
74790;BME280;63318;52.406;13.416;2023-04-06T09:14:57;101780.23;;;13.72;44.69
74790;BME280;63318;52.406;13.416;2023-04-06T09:17:27;101777.38;;;13.71;42.97
74790;BME280;63318;52.406;13.416;2023-04-06T09:19:57;101773.52;;;13.79;44.37
74790;BME280;63318;52.406;13.416;2023-04-06T09:22:34;101774.59;;;13.93;44.45
74790;BME280;63318;52.406;13.416;2023-04-06T09:25:05;101775.27;;;14.05;43.13
74790;BME280;63318;52.406;13.416;2023-04-06T09:27:35;101768.92;;;14.10;42.82
74790;BME280;63318;52.406;13.416;2023-04-06T09:30:13;101767.52;;;14.11;43.32
74790;BME280;63318;52.406;13.416;2023-04-06T09:32:52;101766.42;;;14.12;43.16
74790;BME280;63318;52.406;13.416;2023-04-06T09:35:22;101765.58;;;14.10;41.63
74790;BME280;63318;52.406;13.416;2023-04-06T09:37:52;101765.61;;;14.06;42.26
74790;BME280;63318;52.406;13.416;2023-04-06T09:40:21;101766.50;;;13.96;41.80
74790;BME280;63318;52.406;13.416;2023-04-06T09:42:50;101758.77;;;13.90;40.69
74790;BME280;63318;52.406;13.416;2023-04-06T09:45:19;101754.86;;;13.89;40.36
74790;BME280;63318;52.406;13.416;2023-04-06T09:47:47;101753.25;;;13.92;41.64
74790;BME280;63318;52.406;13.416;2023-04-06T09:50:17;101753.03;;;14.03;41.66
74790;BME280;63318;52.406;13.416;2023-04-06T09:52:50;101752.05;;;14.12;41.01
74790;BME280;63318;52.406;13.416;2023-04-06T09:55:26;101749.41;;;14.10;40.39
74790;BME280;63318;52.406;13.416;2023-04-06T09:58:01;101745.02;;;14.15;40.24
74790;BME280;63318;52.406;13.416;2023-04-06T10:00:40;101745.71;;;14.20;40.15
74790;BME280;63318;52.406;13.416;2023-04-06T10:03:19;101749.38;;;14.28;40.49
74790;BME280;63318;52.406;13.416;2023-04-06T10:05:50;101743.96;;;14.37;39.94
74790;BME280;63318;52.406;13.416;2023-04-06T10:08:21;101740.12;;;14.40;39.88
74790;BME280;63318;52.406;13.416;2023-04-06T10:10:54;101739.81;;;14.55;40.89
74790;BME280;63318;52.406;13.416;2023-04-06T10:13:25;101737.09;;;14.64;38.83
74790;BME280;63318;52.406;13.416;2023-04-06T10:15:54;101734.63;;;14.69;39.85
74790;BME280;63318;52.406;13.416;2023-04-06T10:18:24;101735.92;;;14.72;38.30
74790;BME280;63318;52.406;13.416;2023-04-06T10:20:57;101736.48;;;14.77;39.07
74790;BME280;63318;52.406;13.416;2023-04-06T10:23:33;101732.92;;;14.85;38.68
74790;BME280;63318;52.406;13.416;2023-04-06T10:26:04;101732.03;;;14.95;38.78
74790;BME280;63318;52.406;13.416;2023-04-06T10:28:35;101730.08;;;15.05;38.82
74790;BME280;63318;52.406;13.416;2023-04-06T10:31:06;101730.18;;;15.14;38.28
74790;BME280;63318;52.406;13.416;2023-04-06T10:33:36;101728.34;;;15.22;38.02
74790;BME280;63318;52.406;13.416;2023-04-06T10:36:12;101726.36;;;15.32;37.96
74790;BME280;63318;52.406;13.416;2023-04-06T10:38:41;101729.38;;;15.39;37.47
74790;BME280;63318;52.406;13.416;2023-04-06T10:41:11;101727.77;;;15.41;35.77
74790;BME280;63318;52.406;13.416;2023-04-06T10:43:41;101726.89;;;15.45;36.20
74790;BME280;63318;52.406;13.416;2023-04-06T10:46:10;101724.74;;;15.54;36.88
74790;BME280;63318;52.406;13.416;2023-04-06T10:48:41;101718.56;;;15.60;36.97
74790;BME280;63318;52.406;13.416;2023-04-06T10:51:13;101721.06;;;15.71;35.63
74790;BME280;63318;52.406;13.416;2023-04-06T10:53:44;101720.34;;;15.86;36.97
74790;BME280;63318;52.406;13.416;2023-04-06T10:56:16;101718.36;;;16.02;36.43
74790;BME280;63318;52.406;13.416;2023-04-06T10:58:49;101720.71;;;16.04;35.52
74790;BME280;63318;52.406;13.416;2023-04-06T11:01:19;101717.23;;;15.91;34.61
74790;BME280;63318;52.406;13.416;2023-04-06T11:03:49;101715.67;;;15.75;34.13
74790;BME280;63318;52.406;13.416;2023-04-06T11:06:22;101708.90;;;15.53;34.46
74790;BME280;63318;52.406;13.416;2023-04-06T11:08:52;101706.95;;;15.28;36.34
74790;BME280;63318;52.406;13.416;2023-04-06T11:11:22;101707.35;;;15.05;36.52
74790;BME280;63318;52.406;13.416;2023-04-06T11:13:53;101701.31;;;14.99;36.10
74790;BME280;63318;52.406;13.416;2023-04-06T11:16:23;101701.86;;;15.11;36.29
74790;BME280;63318;52.406;13.416;2023-04-06T11:18:54;101693.50;;;15.26;35.85
74790;BME280;63318;52.406;13.416;2023-04-06T11:21:34;101698.05;;;15.19;35.13
74790;BME280;63318;52.406;13.416;2023-04-06T11:24:14;101699.57;;;15.12;35.14
74790;BME280;63318;52.406;13.416;2023-04-06T11:26:45;101693.30;;;15.19;35.19
74790;BME280;63318;52.406;13.416;2023-04-06T11:29:15;101694.62;;;15.30;35.34
74790;BME280;63318;52.406;13.416;2023-04-06T11:31:47;101691.76;;;15.36;35.07
74790;BME280;63318;52.406;13.416;2023-04-06T11:34:18;101687.73;;;15.44;33.97
74790;BME280;63318;52.406;13.416;2023-04-06T11:36:48;101680.10;;;15.55;34.59
74790;BME280;63318;52.406;13.416;2023-04-06T11:39:23;101678.98;;;15.68;34.77
74790;BME280;63318;52.406;13.416;2023-04-06T11:41:53;101677.09;;;15.80;34.28
74790;BME280;63318;52.406;13.416;2023-04-06T11:44:31;101679.66;;;15.94;34.80
74790;BME280;63318;52.406;13.416;2023-04-06T11:47:00;101682.56;;;16.11;34.19
74790;BME280;63318;52.406;13.416;2023-04-06T11:49:30;101681.82;;;16.26;33.87
74790;BME280;63318;52.406;13.416;2023-04-06T11:52:00;101681.59;;;16.34;33.24
74790;BME280;63318;52.406;13.416;2023-04-06T11:54:36;101676.08;;;16.37;31.97
74790;BME280;63318;52.406;13.416;2023-04-06T11:57:07;101675.96;;;16.44;33.11
74790;BME280;63318;52.406;13.416;2023-04-06T11:59:37;101673.70;;;16.48;32.24
74790;BME280;63318;52.406;13.416;2023-04-06T12:02:06;101665.02;;;16.46;32.30
74790;BME280;63318;52.406;13.416;2023-04-06T12:04:35;101665.83;;;16.44;33.14
74790;BME280;63318;52.406;13.416;2023-04-06T12:07:04;101663.16;;;16.38;32.53
74790;BME280;63318;52.406;13.416;2023-04-06T12:09:34;101660.55;;;16.36;32.98
74790;BME280;63318;52.406;13.416;2023-04-06T12:12:03;101661.54;;;16.36;32.91
74790;BME280;63318;52.406;13.416;2023-04-06T12:14:32;101661.52;;;16.34;32.55
74790;BME280;63318;52.406;13.416;2023-04-06T12:17:00;101658.86;;;16.36;32.22
74790;BME280;63318;52.406;13.416;2023-04-06T12:19:28;101661.15;;;16.28;32.56
74790;BME280;63318;52.406;13.416;2023-04-06T12:21:58;101655.42;;;16.30;32.52
74790;BME280;63318;52.406;13.416;2023-04-06T12:24:26;101659.45;;;16.40;32.68
74790;BME280;63318;52.406;13.416;2023-04-06T12:26:56;101652.69;;;16.46;31.71
74790;BME280;63318;52.406;13.416;2023-04-06T12:29:27;101658.38;;;16.50;31.93
74790;BME280;63318;52.406;13.416;2023-04-06T12:31:56;101652.10;;;16.59;31.69
74790;BME280;63318;52.406;13.416;2023-04-06T12:34:25;101648.47;;;16.65;31.93
74790;BME280;63318;52.406;13.416;2023-04-06T12:36:54;101648.08;;;16.65;32.04
74790;BME280;63318;52.406;13.416;2023-04-06T12:39:22;101647.38;;;16.62;31.72
74790;BME280;63318;52.406;13.416;2023-04-06T12:41:51;101646.32;;;16.67;31.61
74790;BME280;63318;52.406;13.416;2023-04-06T12:44:20;101648.95;;;16.68;31.46
74790;BME280;63318;52.406;13.416;2023-04-06T12:46:48;101643.18;;;16.66;31.82
74790;BME280;63318;52.406;13.416;2023-04-06T12:49:17;101636.42;;;16.51;31.56
74790;BME280;63318;52.406;13.416;2023-04-06T12:51:46;101633.71;;;16.39;30.67
74790;BME280;63318;52.406;13.416;2023-04-06T12:54:15;101637.11;;;16.27;32.29
74790;BME280;63318;52.406;13.416;2023-04-06T12:56:43;101634.70;;;16.17;32.52